sensor_id;sensor_type;location;lat;lon;timestamp;temperature;humidity
1878;DHT22;939;51.426;6.972;2023-04-10T02:24:25;9.40;99.90
1878;DHT22;939;51.426;6.972;2023-04-10T02:26:53;9.40;99.90
1878;DHT22;939;51.426;6.972;2023-04-10T07:29:43;12.30;91.40
1878;DHT22;939;51.426;6.972;2023-04-10T07:32:11;12.40;90.40
1878;DHT22;939;51.426;6.972;2023-04-10T07:34:38;12.60;90.80
1878;DHT22;939;51.426;6.972;2023-04-10T07:37:06;12.60;89.50
1878;DHT22;939;51.426;6.972;2023-04-10T07:39:34;12.70;88.40
1878;DHT22;939;51.426;6.972;2023-04-10T07:42:01;12.80;88.70
1878;DHT22;939;51.426;6.972;2023-04-10T07:44:28;12.90;88.60
1878;DHT22;939;51.426;6.972;2023-04-10T07:46:56;12.90;88.90
1878;DHT22;939;51.426;6.972;2023-04-10T07:49:23;12.80;88.20
1878;DHT22;939;51.426;6.972;2023-04-10T07:51:50;12.90;88.80
1878;DHT22;939;51.426;6.972;2023-04-10T07:54:17;12.90;87.60
1878;DHT22;939;51.426;6.972;2023-04-10T07:56:44;12.90;87.80
1878;DHT22;939;51.426;6.972;2023-04-10T07:59:11;12.90;88.40
1878;DHT22;939;51.426;6.972;2023-04-10T08:01:38;13.00;87.30
1878;DHT22;939;51.426;6.972;2023-04-10T08:04:07;13.00;84.80
1878;DHT22;939;51.426;6.972;2023-04-10T08:06:34;13.10;87.60
1878;DHT22;939;51.426;6.972;2023-04-10T08:09:01;13.10;91.20
1878;DHT22;939;51.426;6.972;2023-04-10T08:11:29;13.20;86.60
1878;DHT22;939;51.426;6.972;2023-04-10T08:13:58;13.20;86.50
1878;DHT22;939;51.426;6.972;2023-04-10T08:16:28;13.20;86.30
1878;DHT22;939;51.426;6.972;2023-04-10T08:18:55;13.30;84.30
1878;DHT22;939;51.426;6.972;2023-04-10T08:21:25;13.40;86.20
1878;DHT22;939;51.426;6.972;2023-04-10T08:23:54;13.50;83.70
1878;DHT22;939;51.426;6.972;2023-04-10T08:26:22;13.50;81.90
1878;DHT22;939;51.426;6.972;2023-04-10T08:28:50;13.50;80.50
1878;DHT22;939;51.426;6.972;2023-04-10T08:31:19;13.50;80.20
1878;DHT22;939;51.426;6.972;2023-04-10T08:33:46;13.50;79.90
1878;DHT22;939;51.426;6.972;2023-04-10T08:36:14;13.60;82.90
1878;DHT22;939;51.426;6.972;2023-04-10T08:38:43;13.80;83.00
1878;DHT22;939;51.426;6.972;2023-04-10T08:41:10;13.90;80.10
1878;DHT22;939;51.426;6.972;2023-04-10T08:43:37;13.80;79.10
1878;DHT22;939;51.426;6.972;2023-04-10T08:46:05;14.00;77.80
1878;DHT22;939;51.426;6.972;2023-04-10T08:48:37;14.00;79.20
1878;DHT22;939;51.426;6.972;2023-04-10T08:51:04;14.10;73.10
1878;DHT22;939;51.426;6.972;2023-04-10T08:53:36;14.10;74.50
1878;DHT22;939;51.426;6.972;2023-04-10T08:56:07;14.30;73.80
1878;DHT22;939;51.426;6.972;2023-04-10T08:58:36;14.50;73.30
1878;DHT22;939;51.426;6.972;2023-04-10T09:01:07;14.70;72.60
1878;DHT22;939;51.426;6.972;2023-04-10T09:03:35;14.70;71.40
1878;DHT22;939;51.426;6.972;2023-04-10T09:06:02;14.90;72.50
1878;DHT22;939;51.426;6.972;2023-04-10T09:08:33;15.00;69.60
1878;DHT22;939;51.426;6.972;2023-04-10T09:11:00;15.10;67.40
1878;DHT22;939;51.426;6.972;2023-04-10T09:13:39;15.10;65.80
1878;DHT22;939;51.426;6.972;2023-04-10T09:16:16;15.20;65.50
1878;DHT22;939;51.426;6.972;2023-04-10T09:18:45;15.10;64.40
1878;DHT22;939;51.426;6.972;2023-04-10T09:21:14;15.00;64.90
1878;DHT22;939;51.426;6.972;2023-04-10T09:23:42;14.80;62.40
1878;DHT22;939;51.426;6.972;2023-04-10T09:26:23;14.70;63.30
1878;DHT22;939;51.426;6.972;2023-04-10T09:29:01;14.70;63.60
1878;DHT22;939;51.426;6.972;2023-04-10T09:31:31;14.70;64.30
1878;DHT22;939;51.426;6.972;2023-04-10T09:34:12;14.90;65.50
1878;DHT22;939;51.426;6.972;2023-04-10T09:36:39;15.20;62.70
1878;DHT22;939;51.426;6.972;2023-04-10T09:39:07;15.70;64.30
1878;DHT22;939;51.426;6.972;2023-04-10T09:41:38;15.90;60.50
1878;DHT22;939;51.426;6.972;2023-04-10T09:44:15;16.30;62.00
1878;DHT22;939;51.426;6.972;2023-04-10T09:46:43;16.70;56.80
1878;DHT22;939;51.426;6.972;2023-04-10T09:49:10;16.90;56.40
1878;DHT22;939;51.426;6.972;2023-04-10T09:51:37;16.70;54.20
1878;DHT22;939;51.426;6.972;2023-04-10T09:54:04;16.90;55.40
1878;DHT22;939;51.426;6.972;2023-04-10T09:56:35;16.80;52.90
1878;DHT22;939;51.426;6.972;2023-04-10T09:59:05;16.70;53.30
1878;DHT22;939;51.426;6.972;2023-04-10T10:01:36;16.70;53.30
1878;DHT22;939;51.426;6.972;2023-04-10T10:04:07;16.60;53.90
1878;DHT22;939;51.426;6.972;2023-04-10T10:06:37;16.50;52.00
1878;DHT22;939;51.426;6.972;2023-04-10T10:09:05;16.40;51.80
1878;DHT22;939;51.426;6.972;2023-04-10T10:11:33;16.40;49.80
1878;DHT22;939;51.426;6.972;2023-04-10T10:14:03;16.40;51.80
1878;DHT22;939;51.426;6.972;2023-04-10T10:16:38;16.70;51.10
1878;DHT22;939;51.426;6.972;2023-04-10T10:19:11;16.70;50.60
1878;DHT22;939;51.426;6.972;2023-04-10T10:21:43;16.60;47.50
1878;DHT22;939;51.426;6.972;2023-04-10T10:24:11;16.30;49.40
1878;DHT22;939;51.426;6.972;2023-04-10T10:26:39;16.60;49.70
1878;DHT22;939;51.426;6.972;2023-04-10T10:29:07;16.90;49.70
1878;DHT22;939;51.426;6.972;2023-04-10T10:31:37;17.20;47.50
1878;DHT22;939;51.426;6.972;2023-04-10T10:34:04;17.60;46.90
1878;DHT22;939;51.426;6.972;2023-04-10T10:36:34;18.20;46.60
1878;DHT22;939;51.426;6.972;2023-04-10T10:39:20;19.30;46.20
1878;DHT22;939;51.426;6.972;2023-04-10T10:41:55;20.00;35.50
1878;DHT22;939;51.426;6.972;2023-04-10T10:44:30;20.50;35.10
1878;DHT22;939;51.426;6.972;2023-04-10T10:47:06;20.40;29.70
1878;DHT22;939;51.426;6.972;2023-04-10T10:49:50;20.00;31.90
1878;DHT22;939;51.426;6.972;2023-04-10T10:52:36;19.50;31.00
1878;DHT22;939;51.426;6.972;2023-04-10T10:55:30;19.10;29.90
1878;DHT22;939;51.426;6.972;2023-04-10T10:57:59;19.20;30.30
1878;DHT22;939;51.426;6.972;2023-04-10T11:03:45;19.20;29.30
1878;DHT22;939;51.426;6.972;2023-04-10T11:06:14;19.10;29.70
1878;DHT22;939;51.426;6.972;2023-04-10T11:08:45;18.90;29.70
1878;DHT22;939;51.426;6.972;2023-04-10T11:11:14;18.70;29.20
1878;DHT22;939;51.426;6.972;2023-04-10T11:14:11;18.80;29.90
1878;DHT22;939;51.426;6.972;2023-04-10T11:16:46;18.70;29.40
1878;DHT22;939;51.426;6.972;2023-04-10T11:19:15;18.50;29.60
1878;DHT22;939;51.426;6.972;2023-04-10T11:22:06;18.30;30.00
1878;DHT22;939;51.426;6.972;2023-04-10T11:24:51;18.20;31.30
1878;DHT22;939;51.426;6.972;2023-04-10T11:27:44;18.00;29.40
1878;DHT22;939;51.426;6.972;2023-04-10T11:30:34;18.20;29.50
1878;DHT22;939;51.426;6.972;2023-04-10T11:33:03;18.50;29.50
1878;DHT22;939;51.426;6.972;2023-04-10T11:35:32;18.90;29.00
1878;DHT22;939;51.426;6.972;2023-04-10T11:38:10;18.90;28.90
1878;DHT22;939;51.426;6.972;2023-04-10T11:40:57;19.20;27.60
1878;DHT22;939;51.426;6.972;2023-04-10T11:43:24;19.20;26.50
1878;DHT22;939;51.426;6.972;2023-04-10T11:45:59;18.80;25.10
1878;DHT22;939;51.426;6.972;2023-04-10T11:48:26;18.70;25.80
1878;DHT22;939;51.426;6.972;2023-04-10T11:50:55;18.40;28.20
1878;DHT22;939;51.426;6.972;2023-04-10T11:53:22;18.30;27.40
1878;DHT22;939;51.426;6.972;2023-04-10T11:55:51;18.00;27.40
1878;DHT22;939;51.426;6.972;2023-04-10T11:58:28;18.10;28.10
1878;DHT22;939;51.426;6.972;2023-04-10T12:01:20;18.40;27.90
1878;DHT22;939;51.426;6.972;2023-04-10T12:03:47;18.50;27.70
1878;DHT22;939;51.426;6.972;2023-04-10T12:06:23;18.50;27.90
1878;DHT22;939;51.426;6.972;2023-04-10T12:08:52;18.30;26.60
1878;DHT22;939;51.426;6.972;2023-04-10T12:11:21;18.50;27.90
1878;DHT22;939;51.426;6.972;2023-04-10T12:13:51;18.40;27.60
1878;DHT22;939;51.426;6.972;2023-04-10T12:16:19;18.40;27.20
1878;DHT22;939;51.426;6.972;2023-04-10T12:18:47;18.30;28.00
1878;DHT22;939;51.426;6.972;2023-04-10T12:21:17;18.40;27.60
1878;DHT22;939;51.426;6.972;2023-04-10T12:23:47;18.40;26.50
1878;DHT22;939;51.426;6.972;2023-04-10T12:26:15;18.10;26.60
1878;DHT22;939;51.426;6.972;2023-04-10T12:28:50;18.00;26.70
1878;DHT22;939;51.426;6.972;2023-04-10T12:31:17;18.20;29.10
1878;DHT22;939;51.426;6.972;2023-04-10T12:33:45;18.40;26.80
1878;DHT22;939;51.426;6.972;2023-04-10T12:36:19;18.40;26.90
1878;DHT22;939;51.426;6.972;2023-04-10T12:38:48;18.50;27.80
1878;DHT22;939;51.426;6.972;2023-04-10T12:41:20;18.70;27.70
1878;DHT22;939;51.426;6.972;2023-04-10T12:43:48;19.00;28.60
1878;DHT22;939;51.426;6.972;2023-04-10T12:46:23;19.10;27.70
1878;DHT22;939;51.426;6.972;2023-04-10T12:48:50;19.10;26.30
1878;DHT22;939;51.426;6.972;2023-04-10T12:51:17;19.00;25.80
1878;DHT22;939;51.426;6.972;2023-04-10T12:53:45;18.90;26.20
1878;DHT22;939;51.426;6.972;2023-04-10T12:56:13;18.90;26.60
1878;DHT22;939;51.426;6.972;2023-04-10T12:58:42;18.70;26.10
1878;DHT22;939;51.426;6.972;2023-04-10T13:01:09;18.50;25.20
1878;DHT22;939;51.426;6.972;2023-04-10T13:03:37;18.50;26.40
1878;DHT22;939;51.426;6.972;2023-04-10T13:06:05;18.50;25.70
1878;DHT22;939;51.426;6.972;2023-04-10T13:08:33;18.40;25.50
1878;DHT22;939;51.426;6.972;2023-04-10T13:11:00;18.20;27.50
1878;DHT22;939;51.426;6.972;2023-04-10T13:13:30;17.90;26.90
1878;DHT22;939;51.426;6.972;2023-04-10T13:15:57;18.00;25.90
1878;DHT22;939;51.426;6.972;2023-04-10T13:18:24;17.80;25.90
1878;DHT22;939;51.426;6.972;2023-04-10T13:20:51;17.80;27.00
1878;DHT22;939;51.426;6.972;2023-04-10T13:23:19;18.00;26.50
1878;DHT22;939;51.426;6.972;2023-04-10T13:25:46;17.90;26.30
1878;DHT22;939;51.426;6.972;2023-04-10T13:28:13;18.10;26.10
1878;DHT22;939;51.426;6.972;2023-04-10T13:30:42;18.10;26.20
1878;DHT22;939;51.426;6.972;2023-04-10T13:33:09;18.00;27.30
1878;DHT22;939;51.426;6.972;2023-04-10T13:35:39;18.10;28.00
1878;DHT22;939;51.426;6.972;2023-04-10T13:38:06;18.10;26.20
1878;DHT22;939;51.426;6.972;2023-04-10T13:40:33;18.10;26.40
1878;DHT22;939;51.426;6.972;2023-04-10T13:43:00;17.90;26.30
1878;DHT22;939;51.426;6.972;2023-04-10T13:45:27;17.80;26.20
1878;DHT22;939;51.426;6.972;2023-04-10T13:47:56;17.90;27.60
1878;DHT22;939;51.426;6.972;2023-04-10T13:50:23;17.80;27.20
1878;DHT22;939;51.426;6.972;2023-04-10T13:52:49;17.70;28.40
1878;DHT22;939;51.426;6.972;2023-04-10T13:55:16;17.70;27.10
1878;DHT22;939;51.426;6.972;2023-04-10T13:57:43;17.80;27.20
1878;DHT22;939;51.426;6.972;2023-04-10T14:00:11;17.90;28.00
1878;DHT22;939;51.426;6.972;2023-04-10T14:02:38;17.70;26.40
1878;DHT22;939;51.426;6.972;2023-04-10T14:05:08;17.50;26.00
1878;DHT22;939;51.426;6.972;2023-04-10T14:07:35;17.40;27.80
1878;DHT22;939;51.426;6.972;2023-04-10T14:10:03;17.50;27.90
1878;DHT22;939;51.426;6.972;2023-04-10T14:12:30;17.30;27.00
1878;DHT22;939;51.426;6.972;2023-04-10T14:14:58;17.30;26.60
1878;DHT22;939;51.426;6.972;2023-04-10T14:17:25;17.30;27.00
1878;DHT22;939;51.426;6.972;2023-04-10T14:19:52;17.30;28.50
1878;DHT22;939;51.426;6.972;2023-04-10T14:22:21;17.40;27.40
1878;DHT22;939;51.426;6.972;2023-04-10T14:24:48;17.40;27.20
1878;DHT22;939;51.426;6.972;2023-04-10T14:27:15;17.20;27.70
1878;DHT22;939;51.426;6.972;2023-04-10T14:29:41;17.20;27.80
1878;DHT22;939;51.426;6.972;2023-04-10T14:32:08;17.30;27.00
1878;DHT22;939;51.426;6.972;2023-04-10T14:34:35;17.30;27.70
1878;DHT22;939;51.426;6.972;2023-04-10T14:37:02;17.20;28.30
1878;DHT22;939;51.426;6.972;2023-04-10T14:39:31;17.20;27.90
1878;DHT22;939;51.426;6.972;2023-04-10T14:41:58;17.10;27.90
1878;DHT22;939;51.426;6.972;2023-04-10T14:44:27;17.20;27.70
1878;DHT22;939;51.426;6.972;2023-04-10T14:46:54;17.40;28.60
1878;DHT22;939;51.426;6.972;2023-04-10T14:49:21;17.60;28.00
1878;DHT22;939;51.426;6.972;2023-04-10T14:51:48;17.90;30.90
1878;DHT22;939;51.426;6.972;2023-04-10T14:54:15;18.00;28.50
1878;DHT22;939;51.426;6.972;2023-04-10T14:56:47;18.10;27.40
1878;DHT22;939;51.426;6.972;2023-04-10T14:59:14;17.90;28.30
1878;DHT22;939;51.426;6.972;2023-04-10T15:01:42;18.10;28.30
1878;DHT22;939;51.426;6.972;2023-04-10T15:06:55;17.90;28.60
1878;DHT22;939;51.426;6.972;2023-04-10T15:09:35;17.70;28.80
1878;DHT22;939;51.426;6.972;2023-04-10T15:12:09;17.80;29.40
1878;DHT22;939;51.426;6.972;2023-04-10T15:14:43;17.60;29.00
1878;DHT22;939;51.426;6.972;2023-04-10T15:17:24;17.60;30.10
1878;DHT22;939;51.426;6.972;2023-04-10T15:20:17;17.60;27.30
1878;DHT22;939;51.426;6.972;2023-04-10T15:23:17;17.70;27.80
1878;DHT22;939;51.426;6.972;2023-04-10T15:26:51;17.80;28.20
1878;DHT22;939;51.426;6.972;2023-04-10T15:29:53;17.80;27.50
1878;DHT22;939;51.426;6.972;2023-04-10T15:32:43;17.80;29.40
1878;DHT22;939;51.426;6.972;2023-04-10T15:35:27;17.80;27.00
1878;DHT22;939;51.426;6.972;2023-04-10T15:38:22;17.70;26.40
1878;DHT22;939;51.426;6.972;2023-04-10T15:40:59;17.70;28.40
1878;DHT22;939;51.426;6.972;2023-04-10T15:43:39;17.60;27.40
1878;DHT22;939;51.426;6.972;2023-04-10T15:46:34;17.60;28.10
1878;DHT22;939;51.426;6.972;2023-04-10T15:49:18;17.60;27.70
1878;DHT22;939;51.426;6.972;2023-04-10T15:51:48;17.60;29.20
1878;DHT22;939;51.426;6.972;2023-04-10T15:54:37;17.60;28.20
1878;DHT22;939;51.426;6.972;2023-04-10T15:57:22;17.60;29.30
1878;DHT22;939;51.426;6.972;2023-04-10T16:00:05;17.40;28.90
1878;DHT22;939;51.426;6.972;2023-04-10T16:02:54;17.40;30.00
1878;DHT22;939;51.426;6.972;2023-04-10T16:05:59;17.40;30.00
1878;DHT22;939;51.426;6.972;2023-04-10T16:08:50;17.30;30.20
1878;DHT22;939;51.426;6.972;2023-04-10T16:11:30;17.20;31.00
1878;DHT22;939;51.426;6.972;2023-04-10T16:14:26;17.20;31.10
1878;DHT22;939;51.426;6.972;2023-04-10T16:17:24;17.10;34.00
1878;DHT22;939;51.426;6.972;2023-04-10T16:23:40;16.90;33.40
1878;DHT22;939;51.426;6.972;2023-04-10T16:29:45;16.80;34.90
1878;DHT22;939;51.426;6.972;2023-04-10T16:32:28;16.70;36.40
1878;DHT22;939;51.426;6.972;2023-04-10T16:39:18;16.80;38.10
1878;DHT22;939;51.426;6.972;2023-04-10T16:42:11;16.70;41.70
1878;DHT22;939;51.426;6.972;2023-04-10T16:45:03;16.60;48.20
1878;DHT22;939;51.426;6.972;2023-04-10T16:50:42;16.40;65.90
1878;DHT22;939;51.426;6.972;2023-04-10T16:53:30;16.10;83.40
1878;DHT22;939;51.426;6.972;2023-04-10T16:56:38;16.00;98.10
1878;DHT22;939;51.426;6.972;2023-04-10T16:59:07;15.60;99.90
1878;DHT22;939;51.426;6.972;2023-04-10T17:01:40;15.20;99.90
1878;DHT22;939;51.426;6.972;2023-04-10T17:04:29;15.00;99.90
1878;DHT22;939;51.426;6.972;2023-04-10T17:07:17;14.80;99.90
1878;DHT22;939;51.426;6.972;2023-04-10T17:13:17;14.80;99.90
1878;DHT22;939;51.426;6.972;2023-04-10T17:15:50;14.70;99.90
1878;DHT22;939;51.426;6.972;2023-04-10T17:18:47;14.50;99.90
1878;DHT22;939;51.426;6.972;2023-04-10T17:21:30;14.50;99.90
1878;DHT22;939;51.426;6.972;2023-04-10T17:24:13;14.30;99.90
1878;DHT22;939;51.426;6.972;2023-04-10T17:26:58;14.20;99.90
1878;DHT22;939;51.426;6.972;2023-04-10T17:29:36;14.20;99.90
1878;DHT22;939;51.426;6.972;2023-04-10T17:32:14;14.20;99.90
1878;DHT22;939;51.426;6.972;2023-04-10T17:36:29;14.10;99.90
1878;DHT22;939;51.426;6.972;2023-04-10T17:38:27;14.20;99.90
1878;DHT22;939;51.426;6.972;2023-04-10T17:40:59;14.20;99.90
1878;DHT22;939;51.426;6.972;2023-04-10T17:43:26;14.20;99.90
1878;DHT22;939;51.426;6.972;2023-04-10T17:45:54;14.10;99.90
1878;DHT22;939;51.426;6.972;2023-04-10T17:48:21;14.10;99.90
1878;DHT22;939;51.426;6.972;2023-04-10T17:50:47;14.20;99.90
1878;DHT22;939;51.426;6.972;2023-04-10T17:57:22;14.20;99.90
1878;DHT22;939;51.426;6.972;2023-04-10T18:00:30;14.30;99.90
1878;DHT22;939;51.426;6.972;2023-04-10T18:03:11;14.20;99.90
1878;DHT22;939;51.426;6.972;2023-04-10T18:09:13;14.20;99.90
1878;DHT22;939;51.426;6.972;2023-04-10T18:18:47;14.00;99.90
1878;DHT22;939;51.426;6.972;2023-04-10T18:21:21;14.00;99.90
1878;DHT22;939;51.426;6.972;2023-04-10T18:23:52;13.90;99.90
1878;DHT22;939;51.426;6.972;2023-04-10T18:26:33;13.60;99.90
1878;DHT22;939;51.426;6.972;2023-04-10T18:29:00;13.60;99.90
1878;DHT22;939;51.426;6.972;2023-04-10T18:31:27;13.50;99.90
1878;DHT22;939;51.426;6.972;2023-04-10T18:33:55;13.60;99.90
1878;DHT22;939;51.426;6.972;2023-04-10T18:36:22;13.60;99.90
1878;DHT22;939;51.426;6.972;2023-04-10T18:38:49;13.60;99.90
1878;DHT22;939;51.426;6.972;2023-04-10T18:41:16;13.60;99.90
1878;DHT22;939;51.426;6.972;2023-04-10T18:43:43;13.40;99.90
1878;DHT22;939;51.426;6.972;2023-04-10T18:46:10;13.60;99.90
1878;DHT22;939;51.426;6.972;2023-04-10T18:48:44;13.70;99.90
1878;DHT22;939;51.426;6.972;2023-04-10T18:51:22;13.50;99.90
1878;DHT22;939;51.426;6.972;2023-04-10T18:53:53;13.60;99.90
1878;DHT22;939;51.426;6.972;2023-04-10T18:56:23;13.30;99.90
1878;DHT22;939;51.426;6.972;2023-04-10T19:01:35;13.30;99.90
1878;DHT22;939;51.426;6.972;2023-04-10T19:04:05;13.20;99.90
1878;DHT22;939;51.426;6.972;2023-04-10T19:06:51;13.20;99.90
1878;DHT22;939;51.426;6.972;2023-04-10T19:09:32;13.10;99.90
1878;DHT22;939;51.426;6.972;2023-04-10T19:12:15;13.20;99.90
1878;DHT22;939;51.426;6.972;2023-04-10T19:14:54;13.10;99.90
1878;DHT22;939;51.426;6.972;2023-04-10T19:20:21;13.10;99.90
1878;DHT22;939;51.426;6.972;2023-04-10T19:23:02;13.00;99.90
1878;DHT22;939;51.426;6.972;2023-04-10T19:25:30;13.10;99.90
1878;DHT22;939;51.426;6.972;2023-04-10T19:28:01;13.10;99.90
1878;DHT22;939;51.426;6.972;2023-04-10T19:33:41;12.90;99.90
1878;DHT22;939;51.426;6.972;2023-04-10T19:42:54;12.50;99.90
1878;DHT22;939;51.426;6.972;2023-04-10T19:45:36;12.50;99.90
1878;DHT22;939;51.426;6.972;2023-04-10T19:48:11;12.50;99.90
1878;DHT22;939;51.426;6.972;2023-04-10T19:50:40;12.50;99.90
1878;DHT22;939;51.426;6.972;2023-04-10T19:53:14;12.50;99.90
1878;DHT22;939;51.426;6.972;2023-04-10T19:55:49;12.60;99.90
1878;DHT22;939;51.426;6.972;2023-04-10T19:58:49;12.60;99.90
1878;DHT22;939;51.426;6.972;2023-04-10T20:01:25;12.50;99.90
1878;DHT22;939;51.426;6.972;2023-04-10T20:03:52;12.50;99.90
1878;DHT22;939;51.426;6.972;2023-04-10T20:06:29;12.40;99.90
1878;DHT22;939;51.426;6.972;2023-04-10T20:08:56;12.40;99.90
1878;DHT22;939;51.426;6.972;2023-04-10T20:11:23;12.40;99.90
1878;DHT22;939;51.426;6.972;2023-04-10T20:13:56;12.20;99.90
1878;DHT22;939;51.426;6.972;2023-04-10T20:16:26;12.10;99.90
1878;DHT22;939;51.426;6.972;2023-04-10T20:18:53;12.20;99.90
1878;DHT22;939;51.426;6.972;2023-04-10T20:21:21;12.20;99.90
1878;DHT22;939;51.426;6.972;2023-04-10T20:23:47;12.00;99.90
1878;DHT22;939;51.426;6.972;2023-04-10T20:26:16;12.00;99.90
1878;DHT22;939;51.426;6.972;2023-04-10T20:28:43;11.90;99.90
1878;DHT22;939;51.426;6.972;2023-04-10T20:31:14;11.90;99.90
1878;DHT22;939;51.426;6.972;2023-04-10T20:33:41;12.00;99.90
1878;DHT22;939;51.426;6.972;2023-04-10T20:36:10;12.00;99.90
1878;DHT22;939;51.426;6.972;2023-04-10T20:38:38;12.00;99.90
1878;DHT22;939;51.426;6.972;2023-04-10T20:41:05;12.00;99.90
1878;DHT22;939;51.426;6.972;2023-04-10T20:43:32;11.90;99.90
1878;DHT22;939;51.426;6.972;2023-04-10T20:46:01;12.00;99.90
1878;DHT22;939;51.426;6.972;2023-04-10T20:48:30;12.10;99.90
1878;DHT22;939;51.426;6.972;2023-04-10T20:50:57;12.00;99.90
1878;DHT22;939;51.426;6.972;2023-04-10T20:53:26;12.00;99.90
1878;DHT22;939;51.426;6.972;2023-04-10T20:55:56;12.00;99.90
1878;DHT22;939;51.426;6.972;2023-04-10T20:58:33;12.00;99.90
1878;DHT22;939;51.426;6.972;2023-04-10T21:02:17;11.80;99.90
1878;DHT22;939;51.426;6.972;2023-04-10T21:04:37;11.70;99.90
1878;DHT22;939;51.426;6.972;2023-04-10T21:07:04;11.70;99.90
1878;DHT22;939;51.426;6.972;2023-04-10T21:09:31;11.60;99.90
1878;DHT22;939;51.426;6.972;2023-04-10T21:11:58;11.50;99.90
1878;DHT22;939;51.426;6.972;2023-04-10T21:14:31;11.50;99.90
1878;DHT22;939;51.426;6.972;2023-04-10T21:16:58;11.30;99.90
1878;DHT22;939;51.426;6.972;2023-04-10T21:19:24;11.10;99.90
1878;DHT22;939;51.426;6.972;2023-04-10T21:21:53;11.10;99.90
1878;DHT22;939;51.426;6.972;2023-04-10T21:24:21;11.00;99.90
1878;DHT22;939;51.426;6.972;2023-04-10T21:26:47;11.00;99.90
1878;DHT22;939;51.426;6.972;2023-04-10T21:29:14;10.90;99.90
1878;DHT22;939;51.426;6.972;2023-04-10T21:31:42;10.90;99.90
1878;DHT22;939;51.426;6.972;2023-04-10T21:34:09;10.90;99.90
1878;DHT22;939;51.426;6.972;2023-04-10T21:36:37;10.90;99.90
1878;DHT22;939;51.426;6.972;2023-04-10T21:39:05;11.00;99.90
1878;DHT22;939;51.426;6.972;2023-04-10T21:41:33;10.80;99.90
1878;DHT22;939;51.426;6.972;2023-04-10T21:44:00;10.80;99.90
1878;DHT22;939;51.426;6.972;2023-04-10T21:46:28;10.80;99.90
1878;DHT22;939;51.426;6.972;2023-04-10T21:48:55;10.70;99.90
1878;DHT22;939;51.426;6.972;2023-04-10T21:51:22;10.70;99.90
1878;DHT22;939;51.426;6.972;2023-04-10T21:53:55;10.70;99.90
1878;DHT22;939;51.426;6.972;2023-04-10T21:56:23;10.70;99.90
1878;DHT22;939;51.426;6.972;2023-04-10T21:59:19;10.70;99.90
1878;DHT22;939;51.426;6.972;2023-04-10T22:01:47;10.80;99.90
1878;DHT22;939;51.426;6.972;2023-04-10T22:04:15;10.80;99.90
1878;DHT22;939;51.426;6.972;2023-04-10T22:06:53;10.80;99.90
1878;DHT22;939;51.426;6.972;2023-04-10T22:09:34;10.90;99.90
1878;DHT22;939;51.426;6.972;2023-04-10T22:12:02;10.80;99.90
1878;DHT22;939;51.426;6.972;2023-04-10T22:14:31;10.80;99.90
1878;DHT22;939;51.426;6.972;2023-04-10T22:17:08;10.90;99.90
1878;DHT22;939;51.426;6.972;2023-04-10T22:19:35;10.90;99.90
1878;DHT22;939;51.426;6.972;2023-04-10T22:22:04;10.80;99.90
1878;DHT22;939;51.426;6.972;2023-04-10T22:24:35;10.80;99.90
1878;DHT22;939;51.426;6.972;2023-04-10T22:27:08;10.70;99.90
1878;DHT22;939;51.426;6.972;2023-04-10T22:29:35;10.80;99.90
1878;DHT22;939;51.426;6.972;2023-04-10T22:32:05;10.70;99.90
1878;DHT22;939;51.426;6.972;2023-04-10T22:34:32;10.80;99.90
1878;DHT22;939;51.426;6.972;2023-04-10T22:37:01;10.80;99.90
1878;DHT22;939;51.426;6.972;2023-04-10T22:39:31;10.80;99.90
1878;DHT22;939;51.426;6.972;2023-04-10T22:42:00;10.70;99.90
1878;DHT22;939;51.426;6.972;2023-04-10T22:44:33;10.70;99.90
1878;DHT22;939;51.426;6.972;2023-04-10T22:47:00;10.80;99.90
1878;DHT22;939;51.426;6.972;2023-04-10T22:49:29;10.80;99.90
1878;DHT22;939;51.426;6.972;2023-04-10T22:51:56;10.80;99.90
1878;DHT22;939;51.426;6.972;2023-04-10T22:54:22;10.70;99.90
1878;DHT22;939;51.426;6.972;2023-04-10T22:56:52;10.70;99.90
1878;DHT22;939;51.426;6.972;2023-04-10T22:59:19;10.80;99.90
1878;DHT22;939;51.426;6.972;2023-04-10T23:01:47;10.80;99.90
1878;DHT22;939;51.426;6.972;2023-04-10T23:04:14;10.60;99.90
1878;DHT22;939;51.426;6.972;2023-04-10T23:06:47;10.60;99.90
1878;DHT22;939;51.426;6.972;2023-04-10T23:09:14;10.50;99.90
1878;DHT22;939;51.426;6.972;2023-04-10T23:11:41;10.50;99.90
1878;DHT22;939;51.426;6.972;2023-04-10T23:14:08;10.50;99.90
1878;DHT22;939;51.426;6.972;2023-04-10T23:16:35;10.60;99.90
1878;DHT22;939;51.426;6.972;2023-04-10T23:19:03;10.60;99.90
1878;DHT22;939;51.426;6.972;2023-04-10T23:21:30;10.60;99.90
1878;DHT22;939;51.426;6.972;2023-04-10T23:24:02;10.60;99.90
1878;DHT22;939;51.426;6.972;2023-04-10T23:26:31;10.60;99.90
1878;DHT22;939;51.426;6.972;2023-04-10T23:28:59;10.50;99.90
1878;DHT22;939;51.426;6.972;2023-04-10T23:31:26;10.50;99.90
1878;DHT22;939;51.426;6.972;2023-04-10T23:34:16;10.50;99.90
1878;DHT22;939;51.426;6.972;2023-04-10T23:40:09;10.50;99.90
1878;DHT22;939;51.426;6.972;2023-04-10T23:48:09;10.60;99.90
1878;DHT22;939;51.426;6.972;2023-04-10T23:51:07;10.50;99.90
1878;DHT22;939;51.426;6.972;2023-04-10T23:53:37;10.60;99.90
